createdAt,value
2018-09-19T00:00:48.484Z,93.30
2018-09-19T00:03:16.900Z,93.60
2018-09-19T19:02:55.419Z,93.80
2018-09-19T19:05:23.849Z,82.50
2018-09-19T19:07:52.324Z,82.70
2018-09-19T19:10:20.752Z,83.00
2018-09-19T19:12:49.168Z,83.00
2018-09-19T19:15:17.579Z,83.00
2018-09-19T19:17:46.024Z,83.20
2018-09-19T19:20:14.469Z,83.30
2018-09-19T19:22:42.872Z,83.60
2018-09-19T19:25:11.437Z,83.70
2018-09-19T19:27:39.863Z,83.90
2018-09-19T19:30:08.318Z,84.10
2018-09-19T19:32:36.767Z,84.20
2018-09-19T19:35:05.255Z,84.30
2018-09-19T19:37:33.769Z,84.60
2018-09-19T19:40:02.231Z,84.60
2018-09-19T19:42:30.723Z,84.70
2018-09-19T19:44:59.148Z,84.90
2018-09-19T19:47:27.547Z,85.00
2018-09-19T19:49:55.951Z,85.10
2018-09-19T19:52:24.485Z,85.40
2018-09-19T19:54:52.916Z,85.50
2018-09-19T19:57:21.335Z,85.70
2018-09-19T19:59:49.748Z,85.90
2018-09-19T20:02:18.465Z,86.00
2018-09-19T20:04:46.877Z,86.20
2018-09-19T20:07:15.324Z,86.60
2018-09-19T20:09:44.067Z,86.60
2018-09-19T20:12:12.631Z,86.60
2018-09-19T20:14:41.078Z,86.60
2018-09-19T20:17:09.580Z,86.90
2018-09-19T20:19:38.028Z,87.30
2018-09-19T20:22:08.771Z,87.40
2018-09-19T20:24:37.193Z,87.80
2018-09-19T20:27:05.927Z,88.00
2018-09-19T20:29:34.376Z,88.30
2018-09-19T20:32:02.797Z,88.70
2018-09-19T20:34:31.383Z,89.60
2018-09-19T20:37:00.016Z,89.00
2018-09-19T20:39:28.432Z,89.10
2018-09-19T20:41:56.874Z,90.00
2018-09-19T20:44:25.296Z,90.00
